sensor_id;sensor_type;location;lat;lon;timestamp;temperature;humidity
20526;DHT22;10421;49.142;9.232;2022-10-22T00:01:38;18.80;99.90
20526;DHT22;10421;49.142;9.232;2022-10-22T00:04:06;18.80;99.90
20526;DHT22;10421;49.142;9.232;2022-10-22T00:06:32;18.70;99.90
20526;DHT22;10421;49.142;9.232;2022-10-22T00:08:59;18.70;99.90
20526;DHT22;10421;49.142;9.232;2022-10-22T00:11:26;18.70;99.90
20526;DHT22;10421;49.142;9.232;2022-10-22T00:13:53;18.80;99.90
20526;DHT22;10421;49.142;9.232;2022-10-22T00:16:21;18.80;99.90
20526;DHT22;10421;49.142;9.232;2022-10-22T00:18:48;18.70;99.90
20526;DHT22;10421;49.142;9.232;2022-10-22T00:21:14;18.60;99.90
20526;DHT22;10421;49.142;9.232;2022-10-22T00:23:42;18.50;99.90
20526;DHT22;10421;49.142;9.232;2022-10-22T00:26:09;18.50;99.90
20526;DHT22;10421;49.142;9.232;2022-10-22T00:28:36;18.40;99.90
20526;DHT22;10421;49.142;9.232;2022-10-22T00:31:03;18.40;99.90
20526;DHT22;10421;49.142;9.232;2022-10-22T00:33:32;18.50;99.90
20526;DHT22;10421;49.142;9.232;2022-10-22T00:35:59;18.40;99.60
20526;DHT22;10421;49.142;9.232;2022-10-22T00:38:25;18.40;99.40
20526;DHT22;10421;49.142;9.232;2022-10-22T00:40:52;18.40;99.40
20526;DHT22;10421;49.142;9.232;2022-10-22T00:43:19;18.50;99.40
20526;DHT22;10421;49.142;9.232;2022-10-22T00:45:46;18.50;99.40
20526;DHT22;10421;49.142;9.232;2022-10-22T00:48:15;18.60;99.50
20526;DHT22;10421;49.142;9.232;2022-10-22T00:50:47;18.50;99.40
20526;DHT22;10421;49.142;9.232;2022-10-22T00:53:18;18.50;99.40
20526;DHT22;10421;49.142;9.232;2022-10-22T00:55:49;18.50;99.60
20526;DHT22;10421;49.142;9.232;2022-10-22T00:58:18;18.40;99.70
20526;DHT22;10421;49.142;9.232;2022-10-22T01:00:46;18.30;99.90
20526;DHT22;10421;49.142;9.232;2022-10-22T01:03:13;18.20;99.90
20526;DHT22;10421;49.142;9.232;2022-10-22T01:05:42;18.20;99.90
20526;DHT22;10421;49.142;9.232;2022-10-22T01:08:18;18.10;99.90
20526;DHT22;10421;49.142;9.232;2022-10-22T01:10:54;18.10;99.90
20526;DHT22;10421;49.142;9.232;2022-10-22T01:13:32;18.10;99.90
20526;DHT22;10421;49.142;9.232;2022-10-22T01:16:08;18.10;99.90
20526;DHT22;10421;49.142;9.232;2022-10-22T01:18:42;18.00;99.90
20526;DHT22;10421;49.142;9.232;2022-10-22T01:21:17;18.00;99.90
20526;DHT22;10421;49.142;9.232;2022-10-22T01:24:24;18.00;99.90
20526;DHT22;10421;49.142;9.232;2022-10-22T01:27:02;18.00;99.90
20526;DHT22;10421;49.142;9.232;2022-10-22T01:29:37;17.90;99.90
20526;DHT22;10421;49.142;9.232;2022-10-22T01:32:09;17.90;99.90
20526;DHT22;10421;49.142;9.232;2022-10-22T01:34:37;17.90;99.90
20526;DHT22;10421;49.142;9.232;2022-10-22T01:37:06;17.90;99.90
20526;DHT22;10421;49.142;9.232;2022-10-22T01:39:35;17.90;99.90
20526;DHT22;10421;49.142;9.232;2022-10-22T01:42:02;17.90;99.90
20526;DHT22;10421;49.142;9.232;2022-10-22T01:44:30;18.00;99.90
20526;DHT22;10421;49.142;9.232;2022-10-22T01:47:06;18.00;99.90
20526;DHT22;10421;49.142;9.232;2022-10-22T01:49:49;18.00;99.90
20526;DHT22;10421;49.142;9.232;2022-10-22T01:52:26;17.90;99.90
20526;DHT22;10421;49.142;9.232;2022-10-22T01:55:05;17.90;99.90
20526;DHT22;10421;49.142;9.232;2022-10-22T01:57:41;17.90;99.90
20526;DHT22;10421;49.142;9.232;2022-10-22T02:00:11;17.90;99.90
20526;DHT22;10421;49.142;9.232;2022-10-22T02:02:43;18.00;99.90
20526;DHT22;10421;49.142;9.232;2022-10-22T02:05:15;18.00;99.90
20526;DHT22;10421;49.142;9.232;2022-10-22T02:07:47;17.90;99.90
20526;DHT22;10421;49.142;9.232;2022-10-22T02:10:16;17.90;99.90
20526;DHT22;10421;49.142;9.232;2022-10-22T02:12:48;17.90;99.90
20526;DHT22;10421;49.142;9.232;2022-10-22T02:15:17;17.80;99.90
20526;DHT22;10421;49.142;9.232;2022-10-22T02:17:46;17.70;99.90
20526;DHT22;10421;49.142;9.232;2022-10-22T02:20:17;17.70;99.90
20526;DHT22;10421;49.142;9.232;2022-10-22T02:22:45;17.70;99.90
20526;DHT22;10421;49.142;9.232;2022-10-22T02:25:14;17.70;99.90
20526;DHT22;10421;49.142;9.232;2022-10-22T02:27:44;17.70;99.90
20526;DHT22;10421;49.142;9.232;2022-10-22T02:30:14;17.70;99.90
20526;DHT22;10421;49.142;9.232;2022-10-22T02:32:44;17.70;99.90
20526;DHT22;10421;49.142;9.232;2022-10-22T02:35:16;17.80;99.90
20526;DHT22;10421;49.142;9.232;2022-10-22T02:37:44;17.80;99.90
20526;DHT22;10421;49.142;9.232;2022-10-22T02:40:12;17.80;99.90
20526;DHT22;10421;49.142;9.232;2022-10-22T02:42:39;17.70;99.90
20526;DHT22;10421;49.142;9.232;2022-10-22T02:45:08;17.70;99.90
20526;DHT22;10421;49.142;9.232;2022-10-22T02:47:35;17.60;99.90
20526;DHT22;10421;49.142;9.232;2022-10-22T02:50:02;17.60;99.90
20526;DHT22;10421;49.142;9.232;2022-10-22T02:52:30;17.60;99.90
20526;DHT22;10421;49.142;9.232;2022-10-22T02:54:56;17.50;99.90
20526;DHT22;10421;49.142;9.232;2022-10-22T02:57:23;17.50;99.90
20526;DHT22;10421;49.142;9.232;2022-10-22T02:59:50;17.60;99.90
20526;DHT22;10421;49.142;9.232;2022-10-22T03:02:17;17.70;99.90
20526;DHT22;10421;49.142;9.232;2022-10-22T03:04:43;17.70;99.90
20526;DHT22;10421;49.142;9.232;2022-10-22T03:07:10;17.80;99.90
20526;DHT22;10421;49.142;9.232;2022-10-22T03:09:38;17.90;99.90
20526;DHT22;10421;49.142;9.232;2022-10-22T03:12:05;18.00;99.90
20526;DHT22;10421;49.142;9.232;2022-10-22T03:14:33;18.00;99.90
20526;DHT22;10421;49.142;9.232;2022-10-22T03:16:59;18.10;99.90
20526;DHT22;10421;49.142;9.232;2022-10-22T03:19:26;18.10;99.90
20526;DHT22;10421;49.142;9.232;2022-10-22T03:21:55;18.10;99.90
20526;DHT22;10421;49.142;9.232;2022-10-22T03:24:26;18.10;99.90
20526;DHT22;10421;49.142;9.232;2022-10-22T03:26:55;18.10;99.90
20526;DHT22;10421;49.142;9.232;2022-10-22T03:29:22;18.00;99.90
20526;DHT22;10421;49.142;9.232;2022-10-22T03:31:51;17.90;99.90
20526;DHT22;10421;49.142;9.232;2022-10-22T03:34:18;17.80;99.90
20526;DHT22;10421;49.142;9.232;2022-10-22T03:36:45;17.70;99.90
20526;DHT22;10421;49.142;9.232;2022-10-22T03:39:14;17.60;99.90
20526;DHT22;10421;49.142;9.232;2022-10-22T03:41:43;17.60;99.90
20526;DHT22;10421;49.142;9.232;2022-10-22T03:44:12;17.60;99.90
20526;DHT22;10421;49.142;9.232;2022-10-22T03:46:40;17.60;99.90
20526;DHT22;10421;49.142;9.232;2022-10-22T03:49:06;17.60;99.90
20526;DHT22;10421;49.142;9.232;2022-10-22T03:51:33;17.60;99.90
20526;DHT22;10421;49.142;9.232;2022-10-22T03:54:00;17.70;99.90
20526;DHT22;10421;49.142;9.232;2022-10-22T03:56:27;17.70;99.90
20526;DHT22;10421;49.142;9.232;2022-10-22T03:58:55;17.80;99.90
20526;DHT22;10421;49.142;9.232;2022-10-22T04:01:25;17.80;99.90
20526;DHT22;10421;49.142;9.232;2022-10-22T04:03:52;17.80;99.90
20526;DHT22;10421;49.142;9.232;2022-10-22T04:06:19;17.80;99.90
20526;DHT22;10421;49.142;9.232;2022-10-22T04:08:46;17.70;99.90
20526;DHT22;10421;49.142;9.232;2022-10-22T04:11:13;17.70;99.90
20526;DHT22;10421;49.142;9.232;2022-10-22T04:13:41;17.70;99.90
20526;DHT22;10421;49.142;9.232;2022-10-22T04:16:09;17.70;99.90
20526;DHT22;10421;49.142;9.232;2022-10-22T04:18:38;17.80;99.90
20526;DHT22;10421;49.142;9.232;2022-10-22T04:21:06;17.80;99.90
20526;DHT22;10421;49.142;9.232;2022-10-22T04:23:33;17.70;99.90
20526;DHT22;10421;49.142;9.232;2022-10-22T04:26:01;17.80;99.90
20526;DHT22;10421;49.142;9.232;2022-10-22T04:28:28;17.80;99.90
20526;DHT22;10421;49.142;9.232;2022-10-22T04:30:55;17.80;99.90
20526;DHT22;10421;49.142;9.232;2022-10-22T04:33:22;17.90;99.90
20526;DHT22;10421;49.142;9.232;2022-10-22T04:35:50;17.90;99.90
20526;DHT22;10421;49.142;9.232;2022-10-22T04:38:17;17.90;99.90
20526;DHT22;10421;49.142;9.232;2022-10-22T04:40:43;17.90;99.90
20526;DHT22;10421;49.142;9.232;2022-10-22T04:43:10;18.00;99.90
20526;DHT22;10421;49.142;9.232;2022-10-22T04:45:37;18.00;99.90
20526;DHT22;10421;49.142;9.232;2022-10-22T04:48:04;18.00;99.90
20526;DHT22;10421;49.142;9.232;2022-10-22T04:50:31;18.10;99.90
20526;DHT22;10421;49.142;9.232;2022-10-22T04:52:59;18.10;99.90
20526;DHT22;10421;49.142;9.232;2022-10-22T04:55:26;18.10;99.90
20526;DHT22;10421;49.142;9.232;2022-10-22T04:57:52;18.10;99.90
20526;DHT22;10421;49.142;9.232;2022-10-22T05:00:19;18.10;99.90
20526;DHT22;10421;49.142;9.232;2022-10-22T05:02:48;18.20;99.90
20526;DHT22;10421;49.142;9.232;2022-10-22T05:05:15;18.10;99.90
20526;DHT22;10421;49.142;9.232;2022-10-22T05:07:42;18.20;99.90
20526;DHT22;10421;49.142;9.232;2022-10-22T05:10:10;18.10;99.90
20526;DHT22;10421;49.142;9.232;2022-10-22T05:12:37;18.10;99.90
20526;DHT22;10421;49.142;9.232;2022-10-22T05:15:04;18.10;99.90
20526;DHT22;10421;49.142;9.232;2022-10-22T05:17:34;18.10;99.90
20526;DHT22;10421;49.142;9.232;2022-10-22T05:20:01;18.10;99.90
20526;DHT22;10421;49.142;9.232;2022-10-22T05:22:27;18.10;99.90
20526;DHT22;10421;49.142;9.232;2022-10-22T05:24:54;18.10;99.90
20526;DHT22;10421;49.142;9.232;2022-10-22T05:27:22;18.10;99.90
20526;DHT22;10421;49.142;9.232;2022-10-22T05:29:49;18.00;99.90
20526;DHT22;10421;49.142;9.232;2022-10-22T05:32:16;18.00;99.90
20526;DHT22;10421;49.142;9.232;2022-10-22T05:34:43;18.00;99.90
20526;DHT22;10421;49.142;9.232;2022-10-22T05:37:10;18.00;99.90
20526;DHT22;10421;49.142;9.232;2022-10-22T05:39:36;17.90;99.90
20526;DHT22;10421;49.142;9.232;2022-10-22T05:42:05;17.90;99.90
20526;DHT22;10421;49.142;9.232;2022-10-22T05:44:33;17.80;99.90
20526;DHT22;10421;49.142;9.232;2022-10-22T05:47:00;17.70;99.90
20526;DHT22;10421;49.142;9.232;2022-10-22T05:49:27;17.70;99.90
20526;DHT22;10421;49.142;9.232;2022-10-22T05:51:53;17.60;99.90
20526;DHT22;10421;49.142;9.232;2022-10-22T05:54:20;17.60;99.90
20526;DHT22;10421;49.142;9.232;2022-10-22T05:56:47;17.60;99.90
20526;DHT22;10421;49.142;9.232;2022-10-22T05:59:14;17.60;99.90
20526;DHT22;10421;49.142;9.232;2022-10-22T06:01:42;17.60;99.90
20526;DHT22;10421;49.142;9.232;2022-10-22T06:04:11;17.60;99.90
20526;DHT22;10421;49.142;9.232;2022-10-22T06:06:42;17.60;99.90
20526;DHT22;10421;49.142;9.232;2022-10-22T06:09:13;17.60;99.90
20526;DHT22;10421;49.142;9.232;2022-10-22T06:11:41;17.50;99.90
20526;DHT22;10421;49.142;9.232;2022-10-22T06:14:08;17.50;99.90
20526;DHT22;10421;49.142;9.232;2022-10-22T06:16:35;17.50;99.90
20526;DHT22;10421;49.142;9.232;2022-10-22T06:19:03;17.50;99.90
20526;DHT22;10421;49.142;9.232;2022-10-22T06:21:31;17.50;99.90
20526;DHT22;10421;49.142;9.232;2022-10-22T06:23:59;17.60;99.90
20526;DHT22;10421;49.142;9.232;2022-10-22T06:26:26;17.60;99.90
20526;DHT22;10421;49.142;9.232;2022-10-22T06:28:54;17.60;99.90
20526;DHT22;10421;49.142;9.232;2022-10-22T06:31:21;17.60;99.90
20526;DHT22;10421;49.142;9.232;2022-10-22T06:33:47;17.60;99.90
20526;DHT22;10421;49.142;9.232;2022-10-22T06:36:21;17.60;99.90
20526;DHT22;10421;49.142;9.232;2022-10-22T06:38:50;17.60;99.90
20526;DHT22;10421;49.142;9.232;2022-10-22T06:41:17;17.60;99.90
20526;DHT22;10421;49.142;9.232;2022-10-22T06:43:44;17.60;99.90
20526;DHT22;10421;49.142;9.232;2022-10-22T06:46:16;17.60;99.90
20526;DHT22;10421;49.142;9.232;2022-10-22T06:48:48;17.70;99.90
20526;DHT22;10421;49.142;9.232;2022-10-22T06:51:14;17.70;99.90
20526;DHT22;10421;49.142;9.232;2022-10-22T06:53:42;17.70;99.90
20526;DHT22;10421;49.142;9.232;2022-10-22T06:56:11;17.70;99.90
20526;DHT22;10421;49.142;9.232;2022-10-22T06:58:38;17.70;99.90
20526;DHT22;10421;49.142;9.232;2022-10-22T07:01:06;17.70;99.90
20526;DHT22;10421;49.142;9.232;2022-10-22T07:03:34;17.70;99.90
20526;DHT22;10421;49.142;9.232;2022-10-22T07:06:02;17.70;99.90
20526;DHT22;10421;49.142;9.232;2022-10-22T07:08:29;17.70;99.90
20526;DHT22;10421;49.142;9.232;2022-10-22T07:11:04;17.80;99.90
20526;DHT22;10421;49.142;9.232;2022-10-22T07:13:31;17.80;99.90
20526;DHT22;10421;49.142;9.232;2022-10-22T07:15:58;17.90;99.90
20526;DHT22;10421;49.142;9.232;2022-10-22T07:18:25;17.90;99.90
20526;DHT22;10421;49.142;9.232;2022-10-22T07:20:52;18.00;99.90
20526;DHT22;10421;49.142;9.232;2022-10-22T07:23:18;18.00;99.90
20526;DHT22;10421;49.142;9.232;2022-10-22T07:25:45;18.10;99.90
20526;DHT22;10421;49.142;9.232;2022-10-22T07:28:13;18.10;99.90
20526;DHT22;10421;49.142;9.232;2022-10-22T07:30:40;18.10;99.90
20526;DHT22;10421;49.142;9.232;2022-10-22T07:33:07;18.10;99.90
20526;DHT22;10421;49.142;9.232;2022-10-22T07:35:36;18.20;99.90
20526;DHT22;10421;49.142;9.232;2022-10-22T07:38:03;18.20;99.90
20526;DHT22;10421;49.142;9.232;2022-10-22T07:40:29;18.20;99.90
20526;DHT22;10421;49.142;9.232;2022-10-22T07:42:56;18.40;99.90
20526;DHT22;10421;49.142;9.232;2022-10-22T07:45:24;18.40;99.90
20526;DHT22;10421;49.142;9.232;2022-10-22T07:47:51;18.50;99.90
20526;DHT22;10421;49.142;9.232;2022-10-22T07:50:18;18.60;99.90
20526;DHT22;10421;49.142;9.232;2022-10-22T07:52:45;18.80;99.90
20526;DHT22;10421;49.142;9.232;2022-10-22T07:55:12;18.90;99.90
20526;DHT22;10421;49.142;9.232;2022-10-22T07:57:39;19.00;99.90
20526;DHT22;10421;49.142;9.232;2022-10-22T08:00:07;19.10;99.90
20526;DHT22;10421;49.142;9.232;2022-10-22T08:02:35;19.20;99.90
20526;DHT22;10421;49.142;9.232;2022-10-22T08:05:02;19.20;99.90
20526;DHT22;10421;49.142;9.232;2022-10-22T08:07:29;19.30;99.90
20526;DHT22;10421;49.142;9.232;2022-10-22T08:09:56;19.30;99.90
20526;DHT22;10421;49.142;9.232;2022-10-22T08:12:23;19.40;99.90
20526;DHT22;10421;49.142;9.232;2022-10-22T08:14:49;19.40;99.90
20526;DHT22;10421;49.142;9.232;2022-10-22T08:17:16;19.40;99.90
20526;DHT22;10421;49.142;9.232;2022-10-22T08:19:44;19.40;99.90
20526;DHT22;10421;49.142;9.232;2022-10-22T08:22:11;19.40;99.90
20526;DHT22;10421;49.142;9.232;2022-10-22T08:24:38;19.40;99.90
20526;DHT22;10421;49.142;9.232;2022-10-22T08:27:05;19.50;99.90
20526;DHT22;10421;49.142;9.232;2022-10-22T08:29:31;19.50;99.90
20526;DHT22;10421;49.142;9.232;2022-10-22T08:31:58;19.60;99.90
20526;DHT22;10421;49.142;9.232;2022-10-22T08:34:27;19.60;99.90
20526;DHT22;10421;49.142;9.232;2022-10-22T08:36:56;19.80;99.90
20526;DHT22;10421;49.142;9.232;2022-10-22T08:39:22;19.90;99.90
20526;DHT22;10421;49.142;9.232;2022-10-22T08:41:56;20.10;99.90
20526;DHT22;10421;49.142;9.232;2022-10-22T08:44:52;20.20;99.90
20526;DHT22;10421;49.142;9.232;2022-10-22T08:47:34;20.40;99.90
20526;DHT22;10421;49.142;9.232;2022-10-22T08:50:08;20.50;99.90
20526;DHT22;10421;49.142;9.232;2022-10-22T08:52:39;20.40;99.90
20526;DHT22;10421;49.142;9.232;2022-10-22T08:55:11;20.50;99.70
20526;DHT22;10421;49.142;9.232;2022-10-22T08:57:47;20.50;98.70
20526;DHT22;10421;49.142;9.232;2022-10-22T09:00:20;20.50;98.40
20526;DHT22;10421;49.142;9.232;2022-10-22T09:02:58;20.50;97.90
20526;DHT22;10421;49.142;9.232;2022-10-22T09:05:35;20.40;97.60
20526;DHT22;10421;49.142;9.232;2022-10-22T09:08:09;20.40;97.90
20526;DHT22;10421;49.142;9.232;2022-10-22T09:10:37;20.50;98.10
20526;DHT22;10421;49.142;9.232;2022-10-22T09:13:08;20.50;98.10
20526;DHT22;10421;49.142;9.232;2022-10-22T09:15:36;20.70;97.80
20526;DHT22;10421;49.142;9.232;2022-10-22T09:18:12;20.90;97.30
20526;DHT22;10421;49.142;9.232;2022-10-22T09:20:47;20.90;96.90
20526;DHT22;10421;49.142;9.232;2022-10-22T09:23:26;21.10;97.10
20526;DHT22;10421;49.142;9.232;2022-10-22T09:25:56;21.00;96.50
20526;DHT22;10421;49.142;9.232;2022-10-22T09:28:23;21.00;96.30
20526;DHT22;10421;49.142;9.232;2022-10-22T09:30:50;21.10;96.50
20526;DHT22;10421;49.142;9.232;2022-10-22T09:33:21;21.10;96.10
20526;DHT22;10421;49.142;9.232;2022-10-22T09:35:51;21.10;95.90
20526;DHT22;10421;49.142;9.232;2022-10-22T09:38:22;21.10;96.50
20526;DHT22;10421;49.142;9.232;2022-10-22T09:40:52;21.20;96.20
20526;DHT22;10421;49.142;9.232;2022-10-22T09:43:19;21.20;96.00
20526;DHT22;10421;49.142;9.232;2022-10-22T09:45:47;21.30;96.10
20526;DHT22;10421;49.142;9.232;2022-10-22T09:48:20;21.30;96.10
20526;DHT22;10421;49.142;9.232;2022-10-22T09:50:56;21.40;95.90
20526;DHT22;10421;49.142;9.232;2022-10-22T09:53:28;21.40;95.60
20526;DHT22;10421;49.142;9.232;2022-10-22T09:55:57;21.50;95.60
20526;DHT22;10421;49.142;9.232;2022-10-22T09:58:24;21.60;95.20
20526;DHT22;10421;49.142;9.232;2022-10-22T10:00:53;21.70;94.70
20526;DHT22;10421;49.142;9.232;2022-10-22T10:03:23;21.80;94.90
20526;DHT22;10421;49.142;9.232;2022-10-22T10:05:52;22.00;94.50
20526;DHT22;10421;49.142;9.232;2022-10-22T10:08:19;22.10;94.10
20526;DHT22;10421;49.142;9.232;2022-10-22T10:10:50;22.30;94.20
20526;DHT22;10421;49.142;9.232;2022-10-22T10:13:40;22.40;94.20
20526;DHT22;10421;49.142;9.232;2022-10-22T10:16:15;22.60;93.80
20526;DHT22;10421;49.142;9.232;2022-10-22T10:19:01;22.80;93.20
20526;DHT22;10421;49.142;9.232;2022-10-22T10:21:33;23.00;93.20
20526;DHT22;10421;49.142;9.232;2022-10-22T10:24:11;23.20;93.20
20526;DHT22;10421;49.142;9.232;2022-10-22T10:26:46;23.50;92.40
20526;DHT22;10421;49.142;9.232;2022-10-22T10:29:23;23.70;91.90
20526;DHT22;10421;49.142;9.232;2022-10-22T10:32:06;23.80;91.90
20526;DHT22;10421;49.142;9.232;2022-10-22T10:34:44;23.90;91.80
20526;DHT22;10421;49.142;9.232;2022-10-22T10:37:18;24.10;91.40
20526;DHT22;10421;49.142;9.232;2022-10-22T10:40:07;24.10;91.20
20526;DHT22;10421;49.142;9.232;2022-10-22T10:42:42;24.20;90.90
20526;DHT22;10421;49.142;9.232;2022-10-22T10:45:16;24.40;90.60
20526;DHT22;10421;49.142;9.232;2022-10-22T10:48:00;24.50;90.40
20526;DHT22;10421;49.142;9.232;2022-10-22T10:50:38;24.50;89.80
20526;DHT22;10421;49.142;9.232;2022-10-22T10:53:13;24.40;89.80
20526;DHT22;10421;49.142;9.232;2022-10-22T10:55:54;24.40;89.20
20526;DHT22;10421;49.142;9.232;2022-10-22T10:58:33;24.40;88.90
20526;DHT22;10421;49.142;9.232;2022-10-22T11:01:11;24.40;89.40
20526;DHT22;10421;49.142;9.232;2022-10-22T11:04:04;24.40;88.90
20526;DHT22;10421;49.142;9.232;2022-10-22T11:06:36;24.40;89.00
20526;DHT22;10421;49.142;9.232;2022-10-22T11:09:07;24.50;89.40
20526;DHT22;10421;49.142;9.232;2022-10-22T11:11:43;24.60;88.90
20526;DHT22;10421;49.142;9.232;2022-10-22T11:14:16;24.80;89.20
20526;DHT22;10421;49.142;9.232;2022-10-22T11:16:48;25.00;89.00
20526;DHT22;10421;49.142;9.232;2022-10-22T11:19:20;25.20;87.10
20526;DHT22;10421;49.142;9.232;2022-10-22T11:21:51;25.20;86.90
20526;DHT22;10421;49.142;9.232;2022-10-22T11:24:23;25.20;86.70
20526;DHT22;10421;49.142;9.232;2022-10-22T11:26:54;25.30;86.40
20526;DHT22;10421;49.142;9.232;2022-10-22T11:29:29;25.40;86.80
20526;DHT22;10421;49.142;9.232;2022-10-22T11:31:58;25.60;85.60
20526;DHT22;10421;49.142;9.232;2022-10-22T11:34:32;25.70;85.40
20526;DHT22;10421;49.142;9.232;2022-10-22T11:37:00;25.80;85.40
20526;DHT22;10421;49.142;9.232;2022-10-22T11:39:30;26.00;84.70
20526;DHT22;10421;49.142;9.232;2022-10-22T11:42:02;26.20;84.70
20526;DHT22;10421;49.142;9.232;2022-10-22T11:44:30;26.30;83.90
20526;DHT22;10421;49.142;9.232;2022-10-22T11:47:17;26.60;84.00
20526;DHT22;10421;49.142;9.232;2022-10-22T11:49:53;26.70;82.70
20526;DHT22;10421;49.142;9.232;2022-10-22T11:52:23;26.80;81.50
20526;DHT22;10421;49.142;9.232;2022-10-22T11:54:54;26.80;80.30
20526;DHT22;10421;49.142;9.232;2022-10-22T11:57:26;26.90;80.60
20526;DHT22;10421;49.142;9.232;2022-10-22T11:59:57;27.10;80.10
20526;DHT22;10421;49.142;9.232;2022-10-22T12:02:39;27.10;78.10
20526;DHT22;10421;49.142;9.232;2022-10-22T12:05:34;27.10;78.20
20526;DHT22;10421;49.142;9.232;2022-10-22T12:11:14;27.10;78.60
20526;DHT22;10421;49.142;9.232;2022-10-22T12:14:06;27.20;78.50
20526;DHT22;10421;49.142;9.232;2022-10-22T12:16:42;27.30;78.20
20526;DHT22;10421;49.142;9.232;2022-10-22T12:19:13;27.40;77.40
20526;DHT22;10421;49.142;9.232;2022-10-22T12:21:43;27.50;76.80
20526;DHT22;10421;49.142;9.232;2022-10-22T12:24:12;27.50;75.90
20526;DHT22;10421;49.142;9.232;2022-10-22T12:26:40;27.40;75.90
20526;DHT22;10421;49.142;9.232;2022-10-22T12:29:11;27.40;76.20
20526;DHT22;10421;49.142;9.232;2022-10-22T12:31:41;27.40;76.30
20526;DHT22;10421;49.142;9.232;2022-10-22T12:34:12;27.50;76.30
20526;DHT22;10421;49.142;9.232;2022-10-22T12:36:39;27.60;77.10
20526;DHT22;10421;49.142;9.232;2022-10-22T12:39:11;27.80;76.80
20526;DHT22;10421;49.142;9.232;2022-10-22T12:41:38;27.70;74.10
20526;DHT22;10421;49.142;9.232;2022-10-22T12:44:05;27.70;73.30
20526;DHT22;10421;49.142;9.232;2022-10-22T12:46:33;27.60;72.80
20526;DHT22;10421;49.142;9.232;2022-10-22T12:49:05;27.50;72.80
20526;DHT22;10421;49.142;9.232;2022-10-22T12:51:33;27.30;72.80
20526;DHT22;10421;49.142;9.232;2022-10-22T12:54:05;27.40;73.00
20526;DHT22;10421;49.142;9.232;2022-10-22T12:56:34;27.40;71.70
20526;DHT22;10421;49.142;9.232;2022-10-22T12:59:05;27.20;70.70
20526;DHT22;10421;49.142;9.232;2022-10-22T13:01:36;27.10;70.30
20526;DHT22;10421;49.142;9.232;2022-10-22T13:04:12;26.90;69.30
20526;DHT22;10421;49.142;9.232;2022-10-22T13:06:45;26.80;69.70
20526;DHT22;10421;49.142;9.232;2022-10-22T13:09:15;26.50;70.00
20526;DHT22;10421;49.142;9.232;2022-10-22T13:11:49;26.50;70.50
20526;DHT22;10421;49.142;9.232;2022-10-22T13:14:25;26.50;71.10
20526;DHT22;10421;49.142;9.232;2022-10-22T13:17:03;26.50;71.20
20526;DHT22;10421;49.142;9.232;2022-10-22T13:19:46;26.50;72.70
20526;DHT22;10421;49.142;9.232;2022-10-22T13:22:29;26.50;72.00
20526;DHT22;10421;49.142;9.232;2022-10-22T13:24:57;26.60;71.80
20526;DHT22;10421;49.142;9.232;2022-10-22T13:27:26;26.50;71.00
20526;DHT22;10421;49.142;9.232;2022-10-22T13:29:53;26.50;70.40
20526;DHT22;10421;49.142;9.232;2022-10-22T13:32:28;26.70;71.10
20526;DHT22;10421;49.142;9.232;2022-10-22T13:34:58;26.80;71.00
20526;DHT22;10421;49.142;9.232;2022-10-22T13:37:27;26.90;70.40
20526;DHT22;10421;49.142;9.232;2022-10-22T13:39:55;26.90;69.20
20526;DHT22;10421;49.142;9.232;2022-10-22T13:42:21;26.90;68.80
20526;DHT22;10421;49.142;9.232;2022-10-22T13:44:48;26.90;68.80
20526;DHT22;10421;49.142;9.232;2022-10-22T13:47:22;26.80;69.10
20526;DHT22;10421;49.142;9.232;2022-10-22T13:49:50;26.80;69.30
20526;DHT22;10421;49.142;9.232;2022-10-22T13:52:30;26.80;70.10
20526;DHT22;10421;49.142;9.232;2022-10-22T13:54:59;26.80;69.30
20526;DHT22;10421;49.142;9.232;2022-10-22T13:57:26;26.90;69.50
20526;DHT22;10421;49.142;9.232;2022-10-22T13:59:53;27.00;69.00
20526;DHT22;10421;49.142;9.232;2022-10-22T14:02:19;27.00;69.30
20526;DHT22;10421;49.142;9.232;2022-10-22T14:04:49;27.10;69.10
20526;DHT22;10421;49.142;9.232;2022-10-22T14:07:17;27.10;68.50
20526;DHT22;10421;49.142;9.232;2022-10-22T14:09:45;27.20;68.40
20526;DHT22;10421;49.142;9.232;2022-10-22T14:12:13;27.20;68.30
20526;DHT22;10421;49.142;9.232;2022-10-22T14:14:40;27.20;67.70
20526;DHT22;10421;49.142;9.232;2022-10-22T14:17:11;27.10;68.10
20526;DHT22;10421;49.142;9.232;2022-10-22T14:19:41;26.90;67.90
20526;DHT22;10421;49.142;9.232;2022-10-22T14:22:12;26.80;68.50
20526;DHT22;10421;49.142;9.232;2022-10-22T14:24:39;26.60;68.80
20526;DHT22;10421;49.142;9.232;2022-10-22T14:27:08;26.50;69.40
20526;DHT22;10421;49.142;9.232;2022-10-22T14:29:36;26.30;69.30
20526;DHT22;10421;49.142;9.232;2022-10-22T14:32:04;26.30;69.70
20526;DHT22;10421;49.142;9.232;2022-10-22T14:34:32;26.30;69.80
20526;DHT22;10421;49.142;9.232;2022-10-22T14:36:59;26.30;69.80
20526;DHT22;10421;49.142;9.232;2022-10-22T14:39:26;26.30;69.20
20526;DHT22;10421;49.142;9.232;2022-10-22T14:41:53;26.20;69.30
20526;DHT22;10421;49.142;9.232;2022-10-22T14:44:21;26.20;69.40
20526;DHT22;10421;49.142;9.232;2022-10-22T14:46:48;26.20;70.00
20526;DHT22;10421;49.142;9.232;2022-10-22T14:49:18;26.20;70.20
20526;DHT22;10421;49.142;9.232;2022-10-22T14:51:45;26.30;69.80
20526;DHT22;10421;49.142;9.232;2022-10-22T14:54:12;26.30;69.80
20526;DHT22;10421;49.142;9.232;2022-10-22T14:56:38;26.30;69.40
20526;DHT22;10421;49.142;9.232;2022-10-22T14:59:05;26.20;69.70
20526;DHT22;10421;49.142;9.232;2022-10-22T15:01:33;26.10;69.70
20526;DHT22;10421;49.142;9.232;2022-10-22T15:04:00;26.00;69.80
20526;DHT22;10421;49.142;9.232;2022-10-22T15:06:27;25.90;70.70
20526;DHT22;10421;49.142;9.232;2022-10-22T15:08:54;25.90;70.50
20526;DHT22;10421;49.142;9.232;2022-10-22T15:11:20;25.90;71.00
20526;DHT22;10421;49.142;9.232;2022-10-22T15:13:47;25.90;71.30
20526;DHT22;10421;49.142;9.232;2022-10-22T15:16:15;25.90;71.00
20526;DHT22;10421;49.142;9.232;2022-10-22T15:18:44;25.90;70.70
20526;DHT22;10421;49.142;9.232;2022-10-22T15:21:14;25.90;70.60
20526;DHT22;10421;49.142;9.232;2022-10-22T15:23:41;25.80;70.60
20526;DHT22;10421;49.142;9.232;2022-10-22T15:26:09;25.80;70.70
20526;DHT22;10421;49.142;9.232;2022-10-22T15:28:36;25.60;70.60
20526;DHT22;10421;49.142;9.232;2022-10-22T15:31:03;25.60;71.10
20526;DHT22;10421;49.142;9.232;2022-10-22T15:33:30;25.60;71.30
20526;DHT22;10421;49.142;9.232;2022-10-22T15:36:08;25.60;71.40
20526;DHT22;10421;49.142;9.232;2022-10-22T15:38:35;25.60;71.40
20526;DHT22;10421;49.142;9.232;2022-10-22T15:41:03;25.50;71.20
20526;DHT22;10421;49.142;9.232;2022-10-22T15:43:30;25.50;71.10
20526;DHT22;10421;49.142;9.232;2022-10-22T15:46:08;25.40;71.50
20526;DHT22;10421;49.142;9.232;2022-10-22T15:48:35;25.30;71.20
20526;DHT22;10421;49.142;9.232;2022-10-22T15:51:08;25.20;71.60